Time,TemperatureF,DewpointF,PressureIn,WindDirection,WindDirectionDegrees,WindSpeedMPH,WindSpeedGustMPH,Humidity,HourlyPrecipIn,Conditions,Clouds,dailyrainin,SolarRadiationWatts/m^2,SoftwareType,DateUTC
2013-10-15 00:00:00,38.3,24.4,30.42,NW,304,0.0,-999.0,57,0.00,,,0.00,0,WeatherHawk,2013-10-15 07:00:00,
2013-10-15 00:05:00,38.5,25.0,30.41,North,0,0.0,-999.0,58,0.00,,,0.00,0,WeatherHawk,2013-10-15 07:05:00,
2013-10-15 00:10:00,38.8,26.1,30.41,North,8,1.0,-999.0,60,0.00,,,0.00,0,WeatherHawk,2013-10-15 07:10:00,
2013-10-15 00:15:00,39.0,25.9,30.42,North,2,2.0,-999.0,59,0.00,,,0.00,0,WeatherHawk,2013-10-15 07:15:00,
2013-10-15 00:20:00,38.8,25.3,30.41,NNE,12,0.0,-999.0,58,0.00,,,0.00,0,WeatherHawk,2013-10-15 07:20:00,
2013-10-15 00:25:00,38.6,26.3,30.42,NNE,12,0.0,-999.0,61,0.00,,,0.00,0,WeatherHawk,2013-10-15 07:25:00,
2013-10-15 00:30:00,37.0,25.2,30.42,NNE,12,0.0,-999.0,62,0.00,,,0.00,0,WeatherHawk,2013-10-15 07:30:00,
2013-10-15 00:35:00,37.7,27.0,30.41,NNE,12,0.0,-999.0,65,0.00,,,0.00,0,WeatherHawk,2013-10-15 07:35:00,
2013-10-15 00:40:00,38.6,27.1,30.42,NNW,342,0.0,-999.0,63,0.00,,,0.00,0,WeatherHawk,2013-10-15 07:40:00,
2013-10-15 00:45:00,37.8,27.1,30.42,North,7,0.0,-999.0,65,0.00,,,0.00,0,WeatherHawk,2013-10-15 07:45:00,
2013-10-15 00:50:00,38.0,28.1,30.42,North,8,1.0,-999.0,67,0.00,,,0.00,0,WeatherHawk,2013-10-15 07:50:00,
2013-10-15 00:55:00,37.8,26.4,30.42,NNW,334,1.0,-999.0,63,0.00,,,0.00,1,WeatherHawk,2013-10-15 07:55:00,
2013-10-15 01:00:00,37.7,26.7,30.42,North,351,0.0,-999.0,64,0.00,,,0.00,0,WeatherHawk,2013-10-15 08:00:00,
2013-10-15 01:05:00,38.0,25.4,30.42,West,279,0.0,-999.0,60,0.00,,,0.00,0,WeatherHawk,2013-10-15 08:05:00,
2013-10-15 01:10:00,37.5,25.7,30.42,NW,312,0.0,-999.0,62,0.00,,,0.00,0,WeatherHawk,2013-10-15 08:10:00,
2013-10-15 01:15:00,36.4,25.8,30.42,ENE,76,0.0,-999.0,65,0.00,,,0.00,0,WeatherHawk,2013-10-15 08:15:00,
2013-10-15 01:20:00,36.4,26.5,30.42,ENE,76,0.0,-999.0,67,0.00,,,0.00,1,WeatherHawk,2013-10-15 08:20:00,
2013-10-15 01:25:00,36.5,26.9,30.43,ENE,76,0.0,-999.0,68,0.00,,,0.00,0,WeatherHawk,2013-10-15 08:25:00,
2013-10-15 01:30:00,37.4,27.5,30.43,SSE,157,0.0,-999.0,67,0.00,,,0.00,1,WeatherHawk,2013-10-15 08:30:00,
2013-10-15 01:35:00,37.7,27.0,30.43,North,349,0.0,-999.0,65,0.00,,,0.00,0,WeatherHawk,2013-10-15 08:35:00,
2013-10-15 01:40:00,37.7,26.7,30.43,North,7,0.0,-999.0,64,0.00,,,0.00,1,WeatherHawk,2013-10-15 08:40:00,
2013-10-15 01:45:00,35.8,24.1,30.43,NW,320,0.0,-999.0,62,0.00,,,0.00,0,WeatherHawk,2013-10-15 08:45:00,
2013-10-15 01:50:00,36.5,25.5,30.43,NW,319,0.0,-999.0,64,0.00,,,0.00,1,WeatherHawk,2013-10-15 08:50:00,
2013-10-15 01:55:00,37.1,27.5,30.43,NW,319,0.0,-999.0,68,0.00,,,0.00,1,WeatherHawk,2013-10-15 08:55:00,
2013-10-15 02:00:00,37.1,26.1,30.43,WSW,257,0.0,-999.0,64,0.00,,,0.00,0,WeatherHawk,2013-10-15 09:00:00,
2013-10-15 02:05:00,36.6,26.7,30.43,NW,309,0.0,-999.0,67,0.00,,,0.00,1,WeatherHawk,2013-10-15 09:05:00,
2013-10-15 02:10:00,37.3,26.7,30.43,North,351,0.0,-999.0,65,0.00,,,0.00,0,WeatherHawk,2013-10-15 09:10:00,
2013-10-15 02:15:00,36.6,25.2,30.44,NNW,327,0.0,-999.0,63,0.00,,,0.00,0,WeatherHawk,2013-10-15 09:15:00,
2013-10-15 02:20:00,36.9,25.9,30.44,West,281,0.0,-999.0,64,0.00,,,0.00,1,WeatherHawk,2013-10-15 09:20:00,
2013-10-15 02:25:00,36.6,27.8,30.43,West,261,0.0,-999.0,70,0.00,,,0.00,0,WeatherHawk,2013-10-15 09:25:00,
2013-10-15 02:30:00,36.5,27.0,30.44,NW,312,0.0,-999.0,68,0.00,,,0.00,0,WeatherHawk,2013-10-15 09:30:00,
2013-10-15 02:35:00,34.8,25.3,30.44,West,264,0.0,-999.0,68,0.00,,,0.00,0,WeatherHawk,2013-10-15 09:35:00,
2013-10-15 02:40:00,34.6,26.6,30.43,West,264,0.0,-999.0,72,0.00,,,0.00,0,WeatherHawk,2013-10-15 09:40:00,
2013-10-15 02:45:00,36.0,27.5,30.43,WSW,258,0.0,-999.0,71,0.00,,,0.00,0,WeatherHawk,2013-10-15 09:45:00,
2013-10-15 02:50:00,35.2,26.4,30.43,West,267,0.0,-999.0,70,0.00,,,0.00,1,WeatherHawk,2013-10-15 09:50:00,
2013-10-15 02:55:00,36.5,29.3,30.44,West,267,1.0,-999.0,75,0.00,,,0.00,1,WeatherHawk,2013-10-15 09:55:00,
2013-10-15 03:00:00,35.2,26.7,30.44,West,269,0.0,-999.0,71,0.00,,,0.00,0,WeatherHawk,2013-10-15 10:00:00,
2013-10-15 03:05:00,35.5,27.7,30.44,NNW,334,0.0,-999.0,73,0.00,,,0.00,0,WeatherHawk,2013-10-15 10:05:00,
2013-10-15 03:10:00,35.7,27.6,30.44,NNW,334,0.0,-999.0,72,0.00,,,0.00,0,WeatherHawk,2013-10-15 10:10:00,
2013-10-15 03:15:00,34.8,25.3,30.43,NNW,334,0.0,-999.0,68,0.00,,,0.00,1,WeatherHawk,2013-10-15 10:15:00,
2013-10-15 03:20:00,35.2,26.8,30.44,South,188,0.0,-999.0,71,0.00,,,0.00,0,WeatherHawk,2013-10-15 10:20:00,
2013-10-15 03:25:00,34.9,25.5,30.44,South,188,0.0,-999.0,68,0.00,,,0.00,1,WeatherHawk,2013-10-15 10:25:00,
2013-10-15 03:30:00,35.9,27.1,30.44,South,188,0.0,-999.0,70,0.00,,,0.00,0,WeatherHawk,2013-10-15 10:30:00,
2013-10-15 03:35:00,35.7,27.2,30.43,South,188,0.0,-999.0,71,0.00,,,0.00,0,WeatherHawk,2013-10-15 10:35:00,
2013-10-15 03:40:00,35.0,27.9,30.43,South,188,0.0,-999.0,75,0.00,,,0.00,0,WeatherHawk,2013-10-15 10:40:00,
2013-10-15 03:45:00,34.8,27.7,30.43,South,172,0.0,-999.0,75,0.00,,,0.00,1,WeatherHawk,2013-10-15 10:45:00,
2013-10-15 03:50:00,34.6,27.9,30.43,South,172,0.0,-999.0,76,0.00,,,0.00,0,WeatherHawk,2013-10-15 10:50:00,
2013-10-15 03:55:00,35.1,28.4,30.43,South,172,0.0,-999.0,76,0.00,,,0.00,0,WeatherHawk,2013-10-15 10:55:00,
2013-10-15 04:00:00,35.6,28.5,30.44,South,172,0.0,-999.0,75,0.00,,,0.00,1,WeatherHawk,2013-10-15 11:00:00,
2013-10-15 04:05:00,35.8,27.7,30.43,South,172,0.0,-999.0,72,0.00,,,0.00,0,WeatherHawk,2013-10-15 11:05:00,
2013-10-15 04:10:00,35.2,26.7,30.43,South,172,0.0,-999.0,71,0.00,,,0.00,1,WeatherHawk,2013-10-15 11:10:00,
2013-10-15 04:15:00,35.2,25.7,30.43,South,172,0.0,-999.0,68,0.00,,,0.00,0,WeatherHawk,2013-10-15 11:15:00,
2013-10-15 04:20:00,34.7,24.9,30.43,South,172,2.0,-999.0,67,0.00,,,0.00,0,WeatherHawk,2013-10-15 11:20:00,
2013-10-15 04:25:00,35.8,25.2,30.43,South,172,0.0,-999.0,65,0.00,,,0.00,0,WeatherHawk,2013-10-15 11:25:00,
2013-10-15 04:30:00,35.0,28.2,30.43,NE,43,0.0,-999.0,76,0.00,,,0.00,0,WeatherHawk,2013-10-15 11:30:00,
2013-10-15 04:35:00,34.6,28.5,30.43,NE,43,0.0,-999.0,78,0.00,,,0.00,0,WeatherHawk,2013-10-15 11:35:00,
2013-10-15 04:45:00,35.4,28.0,30.43,NE,43,0.0,-999.0,74,0.00,,,0.00,0,WeatherHawk,2013-10-15 11:45:00,
2013-10-15 04:50:00,34.5,27.4,30.43,NE,43,0.0,-999.0,75,0.00,,,0.00,0,WeatherHawk,2013-10-15 11:50:00,
2013-10-15 04:55:00,34.3,29.4,30.43,NE,43,0.0,-999.0,82,0.00,,,0.00,0,WeatherHawk,2013-10-15 11:55:00,
2013-10-15 05:05:00,33.5,29.2,30.43,NE,43,0.0,-999.0,84,0.00,,,0.00,0,WeatherHawk,2013-10-15 12:05:00,
2013-10-15 05:10:00,33.9,30.7,30.43,NE,43,0.0,-999.0,88,0.00,,,0.00,0,WeatherHawk,2013-10-15 12:10:00,
2013-10-15 05:15:00,34.0,31.1,30.43,NE,43,0.0,-999.0,89,0.00,,,0.00,0,WeatherHawk,2013-10-15 12:15:00,
2013-10-15 05:20:00,34.1,29.8,30.43,South,176,0.0,-999.0,84,0.00,,,0.00,0,WeatherHawk,2013-10-15 12:20:00,
2013-10-15 05:25:00,33.6,29.0,30.43,South,176,0.0,-999.0,83,0.00,,,0.00,0,WeatherHawk,2013-10-15 12:25:00,
2013-10-15 05:30:00,33.8,29.5,30.43,South,176,0.0,-999.0,84,0.00,,,0.00,0,WeatherHawk,2013-10-15 12:30:00,
2013-10-15 05:35:00,33.1,29.7,30.43,South,176,0.0,-999.0,87,0.00,,,0.00,0,WeatherHawk,2013-10-15 12:35:00,
2013-10-15 05:40:00,32.4,30.1,30.43,South,176,0.0,-999.0,91,0.00,,,0.00,0,WeatherHawk,2013-10-15 12:40:00,
2013-10-15 05:45:00,32.3,30.5,30.43,South,176,0.0,-999.0,93,0.00,,,0.00,0,WeatherHawk,2013-10-15 12:45:00,
2013-10-15 05:50:00,33.7,32.4,30.43,South,176,0.0,-999.0,95,0.00,,,0.00,0,WeatherHawk,2013-10-15 12:50:00,
2013-10-15 05:55:00,33.3,32.2,30.43,South,176,0.0,-999.0,96,0.00,,,0.00,0,WeatherHawk,2013-10-15 12:55:00,
2013-10-15 06:00:00,32.3,30.7,30.43,South,176,0.0,-999.0,94,0.00,,,0.00,0,WeatherHawk,2013-10-15 13:00:00,
2013-10-15 06:05:00,33.3,32.0,30.43,South,176,0.0,-999.0,95,0.00,,,0.00,0,WeatherHawk,2013-10-15 13:05:00,
2013-10-15 06:10:00,33.4,32.4,30.43,South,176,0.0,-999.0,96,0.00,,,0.00,1,WeatherHawk,2013-10-15 13:10:00,
2013-10-15 06:15:00,32.6,31.1,30.43,South,176,0.0,-999.0,94,0.00,,,0.00,0,WeatherHawk,2013-10-15 13:15:00,
2013-10-15 06:20:00,33.4,32.1,30.43,South,176,0.0,-999.0,95,0.00,,,0.00,0,WeatherHawk,2013-10-15 13:20:00,
2013-10-15 06:25:00,33.1,31.8,30.43,South,176,0.0,-999.0,95,0.00,,,0.00,0,WeatherHawk,2013-10-15 13:25:00,
2013-10-15 06:30:00,32.7,31.2,30.43,South,176,0.0,-999.0,94,0.00,,,0.00,0,WeatherHawk,2013-10-15 13:30:00,
2013-10-15 06:35:00,32.9,31.1,30.44,South,176,0.0,-999.0,93,0.00,,,0.00,0,WeatherHawk,2013-10-15 13:35:00,
2013-10-15 06:40:00,32.9,31.2,30.44,South,176,0.0,-999.0,93,0.00,,,0.00,0,WeatherHawk,2013-10-15 13:40:00,
2013-10-15 06:45:00,31.7,29.1,30.43,SE,133,0.0,-999.0,90,0.00,,,0.00,0,WeatherHawk,2013-10-15 13:45:00,
2013-10-15 06:50:00,31.9,27.1,30.43,SSE,151,4.0,-999.0,82,0.00,,,0.00,0,WeatherHawk,2013-10-15 13:50:00,
2013-10-15 06:55:00,32.5,23.4,30.43,South,170,5.0,-999.0,69,0.00,,,0.00,0,WeatherHawk,2013-10-15 13:55:00,
2013-10-15 07:00:00,32.6,22.5,30.43,SSE,166,1.0,-999.0,66,0.00,,,0.00,0,WeatherHawk,2013-10-15 14:00:00,
2013-10-15 07:05:00,32.0,22.3,30.44,SSW,196,0.0,-999.0,67,0.00,,,0.00,0,WeatherHawk,2013-10-15 14:05:00,
2013-10-15 07:10:00,32.8,23.8,30.43,SSW,198,0.0,-999.0,69,0.00,,,0.00,0,WeatherHawk,2013-10-15 14:10:00,
2013-10-15 07:15:00,32.2,23.2,30.44,SE,136,2.0,-999.0,69,0.00,,,0.00,2,WeatherHawk,2013-10-15 14:15:00,
2013-10-15 07:20:00,32.1,23.4,30.44,SE,136,0.0,-999.0,70,0.00,,,0.00,3,WeatherHawk,2013-10-15 14:20:00,
2013-10-15 07:25:00,32.3,23.6,30.44,SSW,205,0.0,-999.0,70,0.00,,,0.00,6,WeatherHawk,2013-10-15 14:25:00,
2013-10-15 07:30:00,32.6,24.6,30.44,WSW,239,0.0,-999.0,72,0.00,,,0.00,8,WeatherHawk,2013-10-15 14:30:00,
2013-10-15 07:35:00,32.0,28.0,30.44,NNW,347,0.0,-999.0,85,0.00,,,0.00,10,WeatherHawk,2013-10-15 14:35:00,
2013-10-15 07:40:00,32.4,29.5,30.44,NNW,347,0.0,-999.0,89,0.00,,,0.00,12,WeatherHawk,2013-10-15 14:40:00,
2013-10-15 07:45:00,32.7,30.3,30.44,NNW,347,0.0,-999.0,91,0.00,,,0.00,13,WeatherHawk,2013-10-15 14:45:00,
2013-10-15 07:50:00,32.7,29.8,30.44,NNE,17,0.0,-999.0,89,0.00,,,0.00,15,WeatherHawk,2013-10-15 14:50:00,
2013-10-15 07:55:00,31.7,28.8,30.44,NNE,26,0.0,-999.0,89,0.00,,,0.00,17,WeatherHawk,2013-10-15 14:55:00,
2013-10-15 08:00:00,32.2,29.9,30.44,North,0,0.0,-999.0,91,0.00,,,0.00,19,WeatherHawk,2013-10-15 15:00:00,
2013-10-15 08:05:00,32.9,30.6,30.44,South,171,1.0,-999.0,91,0.00,,,0.00,20,WeatherHawk,2013-10-15 15:05:00,
2013-10-15 08:10:00,32.4,27.5,30.45,North,351,0.0,-999.0,82,0.00,,,0.00,22,WeatherHawk,2013-10-15 15:10:00,
2013-10-15 08:15:00,31.9,28.2,30.44,North,351,0.0,-999.0,86,0.00,,,0.00,22,WeatherHawk,2013-10-15 15:15:00,
2013-10-15 08:20:00,31.1,27.9,30.45,North,351,0.0,-999.0,88,0.00,,,0.00,23,WeatherHawk,2013-10-15 15:20:00,
2013-10-15 08:25:00,31.8,29.5,30.44,North,351,0.0,-999.0,91,0.00,,,0.00,24,WeatherHawk,2013-10-15 15:25:00,
2013-10-15 08:30:00,31.8,29.7,30.44,SSW,208,0.0,-999.0,92,0.00,,,0.00,24,WeatherHawk,2013-10-15 15:30:00,
2013-10-15 08:35:00,31.8,29.5,30.44,West,266,0.0,-999.0,91,0.00,,,0.00,27,WeatherHawk,2013-10-15 15:35:00,
2013-10-15 08:40:00,33.5,28.6,30.44,SSW,197,2.0,-999.0,82,0.00,,,0.00,28,WeatherHawk,2013-10-15 15:40:00,
2013-10-15 08:45:00,33.7,26.9,30.44,SSW,201,0.0,-999.0,76,0.00,,,0.00,28,WeatherHawk,2013-10-15 15:45:00,
2013-10-15 08:50:00,33.2,26.8,30.44,NNE,16,0.0,-999.0,77,0.00,,,0.00,29,WeatherHawk,2013-10-15 15:50:00,
2013-10-15 08:55:00,35.1,27.4,30.44,South,171,0.0,-999.0,73,0.00,,,0.00,119,WeatherHawk,2013-10-15 15:55:00,
2013-10-15 09:00:00,35.7,25.5,30.44,South,177,3.0,-999.0,66,0.00,,,0.00,82,WeatherHawk,2013-10-15 16:00:00,
2013-10-15 09:05:00,38.1,24.2,30.44,South,180,6.0,-999.0,57,0.00,,,0.00,201,WeatherHawk,2013-10-15 16:05:00,
2013-10-15 09:10:00,39.6,25.2,30.44,SW,225,0.0,-999.0,56,0.00,,,0.00,213,WeatherHawk,2013-10-15 16:10:00,
2013-10-15 09:15:00,37.1,25.3,30.43,WNW,297,0.0,-999.0,62,0.00,,,0.00,222,WeatherHawk,2013-10-15 16:15:00,
2013-10-15 09:20:00,38.7,22.2,30.43,South,172,3.0,-999.0,51,0.00,,,0.00,234,WeatherHawk,2013-10-15 16:20:00,
2013-10-15 09:25:00,39.1,22.5,30.43,WSW,250,0.0,-999.0,51,0.00,,,0.00,243,WeatherHawk,2013-10-15 16:25:00,
2013-10-15 09:30:00,39.6,18.9,30.43,South,176,4.0,-999.0,43,0.00,,,0.00,255,WeatherHawk,2013-10-15 16:30:00,
2013-10-15 09:35:00,40.1,18.9,30.43,SSW,195,0.0,-999.0,42,0.00,,,0.00,267,WeatherHawk,2013-10-15 16:35:00,
2013-10-15 09:40:00,39.7,16.2,30.41,SSE,154,5.0,-999.0,38,0.00,,,0.00,276,WeatherHawk,2013-10-15 16:40:00,
2013-10-15 09:45:00,39.5,16.7,30.41,WNW,288,0.0,-999.0,39,0.00,,,0.00,287,WeatherHawk,2013-10-15 16:45:00,
2013-10-15 09:50:00,40.0,14.6,30.41,SSE,152,7.0,-999.0,35,0.00,,,0.00,298,WeatherHawk,2013-10-15 16:50:00,
2013-10-15 09:55:00,41.5,16.0,30.41,South,173,6.0,-999.0,35,0.00,,,0.00,308,WeatherHawk,2013-10-15 16:55:00,
2013-10-15 10:00:00,40.9,14.8,30.40,SSE,154,5.0,-999.0,34,0.00,,,0.00,318,WeatherHawk,2013-10-15 17:00:00,
2013-10-15 10:05:00,41.4,15.9,30.41,South,173,9.0,-999.0,35,0.00,,,0.00,325,WeatherHawk,2013-10-15 17:05:00,
2013-10-15 10:10:00,41.5,15.9,30.40,SSE,164,8.0,-999.0,35,0.00,,,0.00,335,WeatherHawk,2013-10-15 17:10:00,
2013-10-15 10:15:00,41.7,15.4,30.40,SSE,152,9.0,-999.0,34,0.00,,,0.00,343,WeatherHawk,2013-10-15 17:15:00,
2013-10-15 10:20:00,44.5,16.5,30.40,SE,142,4.0,-999.0,32,0.00,,,0.00,353,WeatherHawk,2013-10-15 17:20:00,
2013-10-15 10:25:00,43.2,14.6,30.39,South,169,7.0,-999.0,31,0.00,,,0.00,361,WeatherHawk,2013-10-15 17:25:00,
2013-10-15 10:30:00,44.4,15.6,30.39,SSE,158,6.0,-999.0,31,0.00,,,0.00,367,WeatherHawk,2013-10-15 17:30:00,
2013-10-15 10:35:00,44.9,14.6,30.39,South,169,8.0,-999.0,29,0.00,,,0.00,376,WeatherHawk,2013-10-15 17:35:00,
2013-10-15 10:40:00,48.2,16.7,30.39,SSW,211,0.0,-999.0,28,0.00,,,0.00,383,WeatherHawk,2013-10-15 17:40:00,
2013-10-15 10:45:00,49.2,14.9,30.39,South,183,2.0,-999.0,25,0.00,,,0.00,393,WeatherHawk,2013-10-15 17:45:00,
2013-10-15 10:50:00,50.6,16.1,30.38,SW,235,1.0,-999.0,25,0.00,,,0.00,399,WeatherHawk,2013-10-15 17:50:00,
2013-10-15 10:55:00,48.8,10.7,30.38,North,9,4.0,-999.0,21,0.00,,,0.00,402,WeatherHawk,2013-10-15 17:55:00,
2013-10-15 11:00:00,45.9,9.2,30.38,South,189,4.0,-999.0,22,0.00,,,0.00,407,WeatherHawk,2013-10-15 18:00:00,
2013-10-15 11:05:00,47.0,10.1,30.37,SSE,164,4.0,-999.0,22,0.00,,,0.00,419,WeatherHawk,2013-10-15 18:05:00,
2013-10-15 11:10:00,47.7,9.7,30.37,ESE,114,1.0,-999.0,21,0.00,,,0.00,425,WeatherHawk,2013-10-15 18:10:00,
2013-10-15 11:15:00,48.5,10.4,30.36,SSW,197,0.0,-999.0,21,0.00,,,0.00,432,WeatherHawk,2013-10-15 18:15:00,
2013-10-15 11:20:00,49.9,9.3,30.36,SW,222,1.0,-999.0,19,0.00,,,0.00,436,WeatherHawk,2013-10-15 18:20:00,
2013-10-15 11:25:00,47.7,3.8,30.36,SSW,192,2.0,-999.0,16,0.00,,,0.00,439,WeatherHawk,2013-10-15 18:25:00,
2013-10-15 11:30:00,51.5,2.3,30.36,SSE,166,1.0,-999.0,13,0.00,,,0.00,426,WeatherHawk,2013-10-15 18:30:00,
2013-10-15 11:35:00,50.3,7.2,30.36,SSE,150,5.0,-999.0,17,0.00,,,0.00,442,WeatherHawk,2013-10-15 18:35:00,
2013-10-15 11:40:00,49.5,3.8,30.35,ESE,120,4.0,-999.0,15,0.00,,,0.00,452,WeatherHawk,2013-10-15 18:40:00,
2013-10-15 11:45:00,51.8,2.6,30.35,SSE,147,5.0,-999.0,13,0.00,,,0.00,457,WeatherHawk,2013-10-15 18:45:00,
2013-10-15 11:50:00,51.7,4.1,30.35,South,178,5.0,-999.0,14,0.00,,,0.00,463,WeatherHawk,2013-10-15 18:50:00,
2013-10-15 11:55:00,49.7,5.4,30.35,WNW,288,0.0,-999.0,16,0.00,,,0.00,455,WeatherHawk,2013-10-15 18:55:00,
2013-10-15 12:00:00,50.9,9.0,30.35,NW,316,4.0,-999.0,18,0.00,,,0.00,464,WeatherHawk,2013-10-15 19:00:00,
2013-10-15 12:05:00,50.6,8.7,30.34,WSW,255,1.0,-999.0,18,0.00,,,0.00,456,WeatherHawk,2013-10-15 19:05:00,
2013-10-15 12:10:00,50.4,3.0,30.34,South,183,5.0,-999.0,14,0.00,,,0.00,479,WeatherHawk,2013-10-15 19:10:00,
2013-10-15 12:15:00,54.4,-1.0,30.34,SW,235,1.0,-999.0,10,0.00,,,0.00,481,WeatherHawk,2013-10-15 19:15:00,
2013-10-15 12:20:00,51.6,0.7,30.33,NW,326,3.0,-999.0,12,0.00,,,0.00,479,WeatherHawk,2013-10-15 19:20:00,
2013-10-15 12:25:00,48.9,-1.4,30.33,NE,34,4.0,-999.0,12,0.00,,,0.00,480,WeatherHawk,2013-10-15 19:25:00,
2013-10-15 12:30:00,50.6,4.7,30.32,North,6,5.0,-999.0,15,0.00,,,0.00,481,WeatherHawk,2013-10-15 19:30:00,
2013-10-15 12:35:00,52.0,5.8,30.33,NNE,17,7.0,-999.0,15,0.00,,,0.00,483,WeatherHawk,2013-10-15 19:35:00,
2013-10-15 12:40:00,51.3,5.2,30.31,ESE,109,11.0,-999.0,15,0.00,,,0.00,482,WeatherHawk,2013-10-15 19:40:00,
2013-10-15 12:45:00,52.1,-5.0,30.32,ESE,102,5.0,-999.0,9,0.00,,,0.00,484,WeatherHawk,2013-10-15 19:45:00,
2013-10-15 12:50:00,52.5,-0.5,30.31,NNW,344,5.0,-999.0,11,0.00,,,0.00,482,WeatherHawk,2013-10-15 19:50:00,
2013-10-15 12:55:00,51.2,-1.5,30.31,NE,45,6.0,-999.0,11,0.00,,,0.00,483,WeatherHawk,2013-10-15 19:55:00,
2013-10-15 13:00:00,52.6,-4.6,30.31,ENE,78,5.0,-999.0,9,0.00,,,0.00,483,WeatherHawk,2013-10-15 20:00:00,
2013-10-15 13:05:00,52.5,-2.5,30.30,ENE,77,6.0,-999.0,10,0.00,,,0.00,483,WeatherHawk,2013-10-15 20:05:00,
2013-10-15 13:10:00,53.6,-6.2,30.30,SE,129,8.0,-999.0,8,0.00,,,0.00,482,WeatherHawk,2013-10-15 20:10:00,
2013-10-15 13:15:00,54.8,-5.4,30.30,SSE,153,5.0,-999.0,8,0.00,,,0.00,480,WeatherHawk,2013-10-15 20:15:00,
2013-10-15 13:20:00,53.2,-6.5,30.29,SE,125,4.0,-999.0,8,0.00,,,0.00,479,WeatherHawk,2013-10-15 20:20:00,
2013-10-15 13:25:00,53.0,-2.1,30.29,SE,137,7.0,-999.0,10,0.00,,,0.00,476,WeatherHawk,2013-10-15 20:25:00,
2013-10-15 13:30:00,53.7,0.5,30.28,SSE,161,4.0,-999.0,11,0.00,,,0.00,474,WeatherHawk,2013-10-15 20:30:00,
2013-10-15 13:35:00,57.2,-3.6,30.29,South,169,0.0,-999.0,8,0.00,,,0.00,472,WeatherHawk,2013-10-15 20:35:00,
2013-10-15 13:40:00,55.0,-2.7,30.28,East,93,3.0,-999.0,9,0.00,,,0.00,468,WeatherHawk,2013-10-15 20:40:00,
2013-10-15 13:45:00,57.0,1.0,30.28,SSW,207,4.0,-999.0,10,0.00,,,0.00,464,WeatherHawk,2013-10-15 20:45:00,
2013-10-15 13:50:00,56.1,-1.9,30.27,SE,130,4.0,-999.0,9,0.00,,,0.00,461,WeatherHawk,2013-10-15 20:50:00,
2013-10-15 13:55:00,55.8,-2.2,30.27,SSE,168,8.0,-999.0,9,0.00,,,0.00,458,WeatherHawk,2013-10-15 20:55:00,
2013-10-15 14:00:00,54.9,-0.6,30.27,SSE,154,3.0,-999.0,10,0.00,,,0.00,453,WeatherHawk,2013-10-15 21:00:00,
2013-10-15 14:05:00,55.8,-4.6,30.26,South,170,5.0,-999.0,8,0.00,,,0.00,451,WeatherHawk,2013-10-15 21:05:00,
2013-10-15 14:10:00,55.2,-2.6,30.26,South,184,4.0,-999.0,9,0.00,,,0.00,442,WeatherHawk,2013-10-15 21:10:00,
2013-10-15 14:15:00,54.7,-8.2,30.26,South,169,11.0,-999.0,7,0.00,,,0.00,437,WeatherHawk,2013-10-15 21:15:00,
2013-10-15 14:20:00,54.9,-5.3,30.26,SSE,163,6.0,-999.0,8,0.00,,,0.00,430,WeatherHawk,2013-10-15 21:20:00,
2013-10-15 14:25:00,57.9,-0.6,30.26,SSE,164,5.0,-999.0,9,0.00,,,0.00,424,WeatherHawk,2013-10-15 21:25:00,
2013-10-15 14:30:00,55.2,-2.6,30.25,SE,146,4.0,-999.0,9,0.00,,,0.00,422,WeatherHawk,2013-10-15 21:30:00,
2013-10-15 14:35:00,55.8,-7.4,30.25,SSE,165,5.0,-999.0,7,0.00,,,0.00,417,WeatherHawk,2013-10-15 21:35:00,
2013-10-15 14:40:00,57.7,-3.2,30.25,ESE,123,0.0,-999.0,8,0.00,,,0.00,409,WeatherHawk,2013-10-15 21:40:00,
2013-10-15 14:45:00,56.1,-7.1,30.24,SE,140,6.0,-999.0,7,0.00,,,0.00,401,WeatherHawk,2013-10-15 21:45:00,
2013-10-15 14:50:00,56.3,-10.1,30.24,South,180,4.0,-999.0,6,0.00,,,0.00,401,WeatherHawk,2013-10-15 21:50:00,
2013-10-15 14:55:00,57.3,-3.5,30.24,East,86,4.0,-999.0,8,0.00,,,0.00,391,WeatherHawk,2013-10-15 21:55:00,
2013-10-15 15:00:00,56.6,-4.0,30.24,ESE,114,8.0,-999.0,8,0.00,,,0.00,379,WeatherHawk,2013-10-15 22:00:00,
2013-10-15 15:05:00,58.2,-0.3,30.23,South,191,0.0,-999.0,9,0.00,,,0.00,376,WeatherHawk,2013-10-15 22:05:00,
2013-10-15 15:10:00,58.2,-8.7,30.24,SW,219,3.0,-999.0,6,0.00,,,0.00,357,WeatherHawk,2013-10-15 22:10:00,
2013-10-15 15:15:00,59.9,-7.5,30.23,WSW,250,0.0,-999.0,6,0.00,,,0.00,330,WeatherHawk,2013-10-15 22:15:00,
2013-10-15 15:20:00,56.5,-1.6,30.23,WNW,295,4.0,-999.0,9,0.00,,,0.00,300,WeatherHawk,2013-10-15 22:20:00,
2013-10-15 15:25:00,59.3,0.5,30.23,NW,316,2.0,-999.0,9,0.00,,,0.00,322,WeatherHawk,2013-10-15 22:25:00,
2013-10-15 15:30:00,57.6,1.4,30.23,NNW,327,0.0,-999.0,10,0.00,,,0.00,320,WeatherHawk,2013-10-15 22:30:00,
2013-10-15 15:35:00,57.2,1.2,30.23,West,266,2.0,-999.0,10,0.00,,,0.00,331,WeatherHawk,2013-10-15 22:35:00,
2013-10-15 15:40:00,56.4,-1.7,30.22,NW,325,4.0,-999.0,9,0.00,,,0.00,327,WeatherHawk,2013-10-15 22:40:00,
2013-10-15 15:45:00,57.5,-3.3,30.23,West,275,4.0,-999.0,8,0.00,,,0.00,318,WeatherHawk,2013-10-15 22:45:00,
2013-10-15 15:50:00,57.7,-0.7,30.22,West,265,0.0,-999.0,9,0.00,,,0.00,301,WeatherHawk,2013-10-15 22:50:00,
2013-10-15 15:55:00,58.5,-2.6,30.22,NW,325,2.0,-999.0,8,0.00,,,0.00,290,WeatherHawk,2013-10-15 22:55:00,
2013-10-15 16:00:00,57.5,-3.4,30.21,West,266,3.0,-999.0,8,0.00,,,0.00,283,WeatherHawk,2013-10-15 23:00:00,
2013-10-15 16:05:00,57.0,-3.7,30.21,West,274,3.0,-999.0,8,0.00,,,0.00,278,WeatherHawk,2013-10-15 23:05:00,
2013-10-15 16:10:00,57.0,-3.7,30.22,WNW,295,5.0,-999.0,8,0.00,,,0.00,268,WeatherHawk,2013-10-15 23:10:00,
2013-10-15 16:15:00,57.6,-3.3,30.21,WNW,299,5.0,-999.0,8,0.00,,,0.00,244,WeatherHawk,2013-10-15 23:15:00,
2013-10-15 16:20:00,57.7,-3.2,30.21,NE,39,0.0,-999.0,8,0.00,,,0.00,252,WeatherHawk,2013-10-15 23:20:00,
2013-10-15 16:25:00,57.4,-0.9,30.22,NNW,327,4.0,-999.0,9,0.00,,,0.00,242,WeatherHawk,2013-10-15 23:25:00,
2013-10-15 16:30:00,59.8,0.9,30.20,NW,318,1.0,-999.0,9,0.00,,,0.00,227,WeatherHawk,2013-10-15 23:30:00,
2013-10-15 16:35:00,59.0,0.2,30.21,WSW,255,2.0,-999.0,9,0.00,,,0.00,188,WeatherHawk,2013-10-15 23:35:00,
2013-10-15 16:40:00,58.2,-2.8,30.21,NNW,327,6.0,-999.0,8,0.00,,,0.00,148,WeatherHawk,2013-10-15 23:40:00,
2013-10-15 16:45:00,57.7,-0.7,30.22,NE,38,3.0,-999.0,9,0.00,,,0.00,146,WeatherHawk,2013-10-15 23:45:00,
2013-10-15 16:50:00,57.2,-3.6,30.21,North,10,4.0,-999.0,8,0.00,,,0.00,138,WeatherHawk,2013-10-15 23:50:00,
2013-10-15 16:55:00,56.7,0.7,30.21,NE,46,3.0,-999.0,10,0.00,,,0.00,137,WeatherHawk,2013-10-15 23:55:00,
2013-10-15 17:00:00,57.1,1.1,30.21,ENE,60,5.0,-999.0,10,0.00,,,0.00,145,WeatherHawk,2013-10-16 00:00:00,
2013-10-15 17:05:00,56.0,4.1,30.21,NE,41,7.0,-999.0,12,0.00,,,0.00,142,WeatherHawk,2013-10-16 00:05:00,
2013-10-15 17:10:00,56.4,4.4,30.21,NNE,23,6.0,-999.0,12,0.00,,,0.00,142,WeatherHawk,2013-10-16 00:10:00,
2013-10-15 17:15:00,55.9,2.2,30.21,NE,42,6.0,-999.0,11,0.00,,,0.00,118,WeatherHawk,2013-10-16 00:15:00,
2013-10-15 17:20:00,55.8,5.7,30.21,NE,40,5.0,-999.0,13,0.00,,,0.00,136,WeatherHawk,2013-10-16 00:20:00,
2013-10-15 17:25:00,56.0,4.1,30.21,NNE,33,4.0,-999.0,12,0.00,,,0.00,105,WeatherHawk,2013-10-16 00:25:00,
2013-10-15 17:30:00,55.8,5.7,30.21,East,101,1.0,-999.0,13,0.00,,,0.00,127,WeatherHawk,2013-10-16 00:30:00,
2013-10-15 17:35:00,55.2,5.2,30.21,East,92,3.0,-999.0,13,0.00,,,0.00,116,WeatherHawk,2013-10-16 00:35:00,
2013-10-15 17:45:00,55.5,8.6,30.21,NNE,23,4.0,-999.0,15,0.00,,,0.00,104,WeatherHawk,2013-10-16 00:45:00,
2013-10-15 17:50:00,55.1,5.2,30.21,NE,36,1.0,-999.0,13,0.00,,,0.00,78,WeatherHawk,2013-10-16 00:50:00,
2013-10-15 17:55:00,54.8,9.5,30.21,East,98,3.0,-999.0,16,0.00,,,0.00,76,WeatherHawk,2013-10-16 00:55:00,
2013-10-15 18:00:00,54.6,4.8,30.21,NNE,27,4.0,-999.0,13,0.00,,,0.00,59,WeatherHawk,2013-10-16 01:00:00,
2013-10-15 18:05:00,54.4,6.2,30.21,ENE,78,2.0,-999.0,14,0.00,,,0.00,39,WeatherHawk,2013-10-16 01:05:00,
2013-10-15 18:10:00,54.2,7.6,30.21,NNE,23,5.0,-999.0,15,0.00,,,0.00,32,WeatherHawk,2013-10-16 01:10:00,
2013-10-15 18:15:00,53.8,7.3,30.21,NNE,20,8.0,-999.0,15,0.00,,,0.00,22,WeatherHawk,2013-10-16 01:15:00,
2013-10-15 18:20:00,53.7,8.6,30.21,ENE,74,2.0,-999.0,16,0.00,,,0.00,13,WeatherHawk,2013-10-16 01:20:00,
2013-10-15 18:25:00,53.5,8.4,30.21,NE,56,0.0,-999.0,16,0.00,,,0.00,10,WeatherHawk,2013-10-16 01:25:00,
2013-10-15 18:30:00,54.3,9.1,30.21,North,351,5.0,-999.0,16,0.00,,,0.00,4,WeatherHawk,2013-10-16 01:30:00,
2013-10-15 18:35:00,53.2,8.2,30.21,NNE,28,0.0,-999.0,16,0.00,,,0.00,0,WeatherHawk,2013-10-16 01:35:00,
2013-10-15 18:40:00,53.2,9.6,30.21,North,350,0.0,-999.0,17,0.00,,,0.00,1,WeatherHawk,2013-10-16 01:40:00,
2013-10-15 18:45:00,53.1,9.5,30.21,ESE,112,0.0,-999.0,17,0.00,,,0.00,0,WeatherHawk,2013-10-16 01:45:00,
2013-10-15 18:50:00,53.3,9.6,30.20,NE,56,0.0,-999.0,17,0.00,,,0.00,0,WeatherHawk,2013-10-16 01:50:00,
2013-10-15 18:55:00,52.8,10.5,30.21,NNE,24,0.0,-999.0,18,0.00,,,0.00,0,WeatherHawk,2013-10-16 01:55:00,
2013-10-15 19:00:00,52.9,11.8,30.21,ESE,105,0.0,-999.0,19,0.00,,,0.00,0,WeatherHawk,2013-10-16 02:00:00,
2013-10-15 19:05:00,52.9,10.6,30.21,NE,54,0.0,-999.0,18,0.00,,,0.00,0,WeatherHawk,2013-10-16 02:05:00,
2013-10-15 19:10:00,53.0,10.6,30.21,ESE,120,0.0,-999.0,18,0.00,,,0.00,0,WeatherHawk,2013-10-16 02:10:00,
2013-10-15 19:15:00,52.1,13.4,30.21,ESE,120,0.0,-999.0,21,0.00,,,0.00,0,WeatherHawk,2013-10-16 02:15:00,
2013-10-15 19:20:00,53.0,13.0,30.21,ESE,120,0.0,-999.0,20,0.00,,,0.00,0,WeatherHawk,2013-10-16 02:20:00,
2013-10-15 19:25:00,52.6,13.8,30.21,ESE,119,0.0,-999.0,21,0.00,,,0.00,0,WeatherHawk,2013-10-16 02:25:00,
2013-10-15 19:30:00,51.0,11.4,30.21,ESE,119,0.0,-999.0,20,0.00,,,0.00,0,WeatherHawk,2013-10-16 02:30:00,
2013-10-15 19:35:00,52.6,14.9,30.21,WSW,256,0.0,-999.0,22,0.00,,,0.00,0,WeatherHawk,2013-10-16 02:35:00,
2013-10-15 19:40:00,52.1,14.4,30.21,WNW,294,0.0,-999.0,22,0.00,,,0.00,0,WeatherHawk,2013-10-16 02:40:00,
2013-10-15 19:45:00,51.7,15.1,30.21,North,3,1.0,-999.0,23,0.00,,,0.00,0,WeatherHawk,2013-10-16 02:45:00,
2013-10-15 19:50:00,51.4,15.8,30.20,North,3,0.0,-999.0,24,0.00,,,0.00,0,WeatherHawk,2013-10-16 02:50:00,
2013-10-15 19:55:00,52.2,15.5,30.21,West,278,0.0,-999.0,23,0.00,,,0.00,0,WeatherHawk,2013-10-16 02:55:00,
2013-10-15 20:00:00,50.7,17.1,30.21,NNW,330,2.0,-999.0,26,0.00,,,0.00,0,WeatherHawk,2013-10-16 03:00:00,
2013-10-15 20:05:00,48.7,17.9,30.21,NNW,341,0.0,-999.0,29,0.00,,,0.00,0,WeatherHawk,2013-10-16 03:05:00,
2013-10-15 20:10:00,49.6,18.7,30.21,NNW,338,2.0,-999.0,29,0.00,,,0.00,0,WeatherHawk,2013-10-16 03:10:00,
2013-10-15 20:15:00,48.8,19.5,30.21,North,0,0.0,-999.0,31,0.00,,,0.00,0,WeatherHawk,2013-10-16 03:15:00,
2013-10-15 20:20:00,49.1,20.5,30.21,North,351,0.0,-999.0,32,0.00,,,0.00,0,WeatherHawk,2013-10-16 03:20:00,
2013-10-15 20:25:00,48.1,19.7,30.20,WNW,299,0.0,-999.0,32,0.00,,,0.00,0,WeatherHawk,2013-10-16 03:25:00,
2013-10-15 20:30:00,47.7,20.7,30.20,SE,137,0.0,-999.0,34,0.00,,,0.00,0,WeatherHawk,2013-10-16 03:30:00,
2013-10-15 20:35:00,47.9,21.6,30.20,NNW,332,1.0,-999.0,35,0.00,,,0.00,0,WeatherHawk,2013-10-16 03:35:00,
2013-10-15 20:40:00,47.0,21.5,30.21,NNW,347,0.0,-999.0,36,0.00,,,0.00,0,WeatherHawk,2013-10-16 03:40:00,
2013-10-15 20:45:00,47.5,22.5,30.21,NNW,338,0.0,-999.0,37,0.00,,,0.00,0,WeatherHawk,2013-10-16 03:45:00,
2013-10-15 20:50:00,47.7,21.4,30.21,NW,307,0.0,-999.0,35,0.00,,,0.00,0,WeatherHawk,2013-10-16 03:50:00,
2013-10-15 20:55:00,47.8,22.2,30.21,NW,314,0.0,-999.0,36,0.00,,,0.00,0,WeatherHawk,2013-10-16 03:55:00,
2013-10-15 21:00:00,47.8,22.1,30.21,NNW,342,0.0,-999.0,36,0.00,,,0.00,0,WeatherHawk,2013-10-16 04:00:00,
2013-10-15 21:05:00,47.6,22.7,30.21,SW,235,3.0,-999.0,37,0.00,,,0.00,0,WeatherHawk,2013-10-16 04:05:00,
2013-10-15 21:10:00,46.3,21.5,30.21,WSW,247,0.0,-999.0,37,0.00,,,0.00,0,WeatherHawk,2013-10-16 04:10:00,
2013-10-15 21:15:00,45.6,22.1,30.21,SSW,205,0.0,-999.0,39,0.00,,,0.00,0,WeatherHawk,2013-10-16 04:15:00,
2013-10-15 21:20:00,45.0,22.8,30.21,SSW,205,0.0,-999.0,41,0.00,,,0.00,0,WeatherHawk,2013-10-16 04:20:00,
2013-10-15 21:25:00,43.5,23.0,30.21,NE,39,0.0,-999.0,44,0.00,,,0.00,0,WeatherHawk,2013-10-16 04:25:00,
2013-10-15 21:30:00,45.1,26.1,30.21,NE,39,0.0,-999.0,47,0.00,,,0.00,0,WeatherHawk,2013-10-16 04:30:00,
2013-10-15 21:35:00,45.7,25.6,30.21,NNW,345,0.0,-999.0,45,0.00,,,0.00,0,WeatherHawk,2013-10-16 04:35:00,
2013-10-15 21:40:00,45.7,26.1,30.21,NNW,345,0.0,-999.0,46,0.00,,,0.00,0,WeatherHawk,2013-10-16 04:40:00,
2013-10-15 21:45:00,45.2,24.6,30.21,West,276,0.0,-999.0,44,0.00,,,0.00,0,WeatherHawk,2013-10-16 04:45:00,
2013-10-15 21:50:00,45.3,25.2,30.21,West,276,0.0,-999.0,45,0.00,,,0.00,0,WeatherHawk,2013-10-16 04:50:00,
2013-10-15 22:00:00,45.0,26.0,30.22,West,276,0.0,-999.0,47,0.00,,,0.00,0,WeatherHawk,2013-10-16 05:00:00,
2013-10-15 22:05:00,43.9,24.4,30.22,WNW,296,0.0,-999.0,46,0.00,,,0.00,0,WeatherHawk,2013-10-16 05:05:00,
2013-10-15 22:10:00,43.4,25.0,30.21,SW,225,0.0,-999.0,48,0.00,,,0.00,0,WeatherHawk,2013-10-16 05:10:00,
2013-10-15 22:15:00,43.4,25.0,30.22,SW,225,0.0,-999.0,48,0.00,,,0.00,0,WeatherHawk,2013-10-16 05:15:00,
2013-10-15 22:20:00,43.7,25.3,30.21,SW,230,0.0,-999.0,48,0.00,,,0.00,0,WeatherHawk,2013-10-16 05:20:00,
2013-10-15 22:25:00,43.5,25.1,30.21,North,349,0.0,-999.0,48,0.00,,,0.00,1,WeatherHawk,2013-10-16 05:25:00,
2013-10-15 22:30:00,43.8,25.9,30.21,NW,311,0.0,-999.0,49,0.00,,,0.00,0,WeatherHawk,2013-10-16 05:30:00,
2013-10-15 22:35:00,43.0,24.7,30.21,NW,321,0.0,-999.0,48,0.00,,,0.00,0,WeatherHawk,2013-10-16 05:35:00,
2013-10-15 22:40:00,43.2,26.3,30.21,WNW,295,2.0,-999.0,51,0.00,,,0.00,0,WeatherHawk,2013-10-16 05:40:00,
2013-10-15 22:45:00,42.5,24.2,30.22,West,268,0.0,-999.0,48,0.00,,,0.00,0,WeatherHawk,2013-10-16 05:45:00,
2013-10-15 22:50:00,43.0,24.2,30.21,WNW,292,0.0,-999.0,47,0.00,,,0.00,0,WeatherHawk,2013-10-16 05:50:00,
2013-10-15 22:55:00,43.1,25.3,30.21,WSW,250,1.0,-999.0,49,0.00,,,0.00,0,WeatherHawk,2013-10-16 05:55:00,
2013-10-15 23:00:00,42.9,24.6,30.22,West,263,1.0,-999.0,48,0.00,,,0.00,0,WeatherHawk,2013-10-16 06:00:00,
2013-10-15 23:05:00,41.9,24.6,30.21,SSE,161,0.0,-999.0,50,0.00,,,0.00,0,WeatherHawk,2013-10-16 06:05:00,
2013-10-15 23:10:00,41.8,25.0,30.21,South,188,2.0,-999.0,51,0.00,,,0.00,0,WeatherHawk,2013-10-16 06:10:00,
2013-10-15 23:15:00,39.9,23.3,30.21,SW,217,0.0,-999.0,51,0.00,,,0.00,0,WeatherHawk,2013-10-16 06:15:00,
2013-10-15 23:20:00,41.0,25.2,30.21,SW,232,0.0,-999.0,53,0.00,,,0.00,0,WeatherHawk,2013-10-16 06:20:00,
2013-10-15 23:25:00,40.6,24.8,30.21,SW,235,0.0,-999.0,53,0.00,,,0.00,0,WeatherHawk,2013-10-16 06:25:00,
2013-10-15 23:30:00,41.7,25.8,30.21,SW,235,0.0,-999.0,53,0.00,,,0.00,0,WeatherHawk,2013-10-16 06:30:00,
2013-10-15 23:35:00,40.4,25.0,30.21,SSW,205,0.0,-999.0,54,0.00,,,0.00,1,WeatherHawk,2013-10-16 06:35:00,
2013-10-15 23:40:00,39.8,24.6,30.21,South,186,0.0,-999.0,54,0.00,,,0.00,0,WeatherHawk,2013-10-16 06:40:00,
2013-10-15 23:45:00,40.6,26.1,30.20,South,186,0.0,-999.0,56,0.00,,,0.00,0,WeatherHawk,2013-10-16 06:45:00,
2013-10-15 23:50:00,40.4,26.4,30.21,SW,230,0.0,-999.0,57,0.00,,,0.00,0,WeatherHawk,2013-10-16 06:50:00,
2013-10-15 23:55:00,40.6,27.4,30.21,South,186,0.0,-999.0,59,0.00,,,0.00,0,WeatherHawk,2013-10-16 06:55:00,